createdAt,value
2018-05-07T00:00:13.984Z,15.90
2018-05-07T00:02:41.059Z,15.90
2018-05-07T00:05:08.138Z,15.90
2018-05-07T00:07:35.220Z,15.80
2018-05-07T00:10:02.297Z,15.80
2018-05-07T00:12:29.378Z,15.80
2018-05-07T00:14:56.449Z,15.70
2018-05-07T00:17:23.525Z,15.70
2018-05-07T00:19:51.042Z,15.60
2018-05-07T00:22:18.553Z,15.70
2018-05-07T00:24:46.830Z,15.60
2018-05-07T00:27:14.681Z,15.50
2018-05-07T00:29:41.772Z,15.50
2018-05-07T00:32:08.837Z,15.50
2018-05-07T00:34:35.905Z,15.50
2018-05-07T00:37:02.997Z,15.50
2018-05-07T00:39:30.073Z,15.50
2018-05-07T00:41:57.140Z,15.50
2018-05-07T00:44:24.215Z,15.50
2018-05-07T00:46:51.277Z,15.40
2018-05-07T00:49:18.353Z,15.40
2018-05-07T00:51:45.429Z,15.30
2018-05-07T00:54:12.933Z,15.30
2018-05-07T00:56:40.793Z,15.20
2018-05-07T00:59:08.620Z,15.20
2018-05-07T01:01:35.705Z,15.20
2018-05-07T01:04:02.781Z,15.10
2018-05-07T01:06:29.853Z,15.10
2018-05-07T01:08:56.930Z,15.00
2018-05-07T01:11:24.006Z,15.00
2018-05-07T01:13:51.085Z,14.90
2018-05-07T01:16:18.158Z,14.90
2018-05-07T01:18:45.232Z,14.90
2018-05-07T01:21:12.308Z,14.80
2018-05-07T01:23:40.142Z,14.70
2018-05-07T01:26:07.213Z,14.70
2018-05-07T01:28:34.725Z,14.70
2018-05-07T01:31:02.253Z,14.60
2018-05-07T01:33:29.758Z,14.60
2018-05-07T01:35:57.273Z,14.60
2018-05-07T01:38:24.790Z,14.60
2018-05-07T01:40:52.302Z,14.60
2018-05-07T01:43:19.826Z,14.60
2018-05-07T01:45:48.129Z,14.50
2018-05-07T01:48:15.638Z,14.50
2018-05-07T01:50:43.146Z,14.50
2018-05-07T01:53:10.213Z,14.50
2018-05-07T01:55:37.722Z,14.50
2018-05-07T01:58:05.242Z,14.50
2018-05-07T02:00:32.750Z,14.50
2018-05-07T02:03:01.033Z,14.40
2018-05-07T02:05:29.305Z,14.40
2018-05-07T02:07:57.593Z,14.40
2018-05-07T02:10:25.106Z,14.40
2018-05-07T02:12:52.200Z,14.40
2018-05-07T02:15:19.264Z,14.40
2018-05-07T02:17:46.332Z,14.40
2018-05-07T02:20:13.846Z,14.30
2018-05-07T02:22:41.676Z,14.20
2018-05-07T02:25:08.745Z,14.20
2018-05-07T02:27:36.582Z,14.10
2018-05-07T02:30:03.649Z,14.10
2018-05-07T02:32:31.173Z,14.00
2018-05-07T02:34:58.678Z,14.00
2018-05-07T02:37:26.529Z,13.90
2018-05-07T02:39:53.603Z,13.90
2018-05-07T02:42:21.432Z,13.80
2018-05-07T02:44:48.513Z,13.80
2018-05-07T02:47:16.393Z,13.70
2018-05-07T02:49:43.474Z,13.70
2018-05-07T02:52:10.537Z,13.80
2018-05-07T02:54:37.606Z,13.80
2018-05-07T02:57:04.670Z,13.70
2018-05-07T02:59:32.518Z,13.70
2018-05-07T03:02:00.101Z,13.70
2018-05-07T03:04:27.477Z,13.70
2018-05-07T03:06:54.995Z,13.70
2018-05-07T03:09:22.505Z,13.70
2018-05-07T03:11:50.025Z,13.60
2018-05-07T03:14:18.302Z,13.60
2018-05-07T03:16:46.152Z,13.60
2018-05-07T03:19:13.213Z,13.60
2018-05-07T03:21:41.045Z,13.60
2018-05-07T03:24:08.137Z,13.60
2018-05-07T03:26:35.970Z,13.60
2018-05-07T03:29:03.045Z,13.60
2018-05-07T03:31:30.904Z,13.60
2018-05-07T03:33:57.972Z,13.60
2018-05-07T03:36:25.060Z,13.60
2018-05-07T03:38:52.156Z,13.60
2018-05-07T03:41:20.012Z,13.60
2018-05-07T03:43:47.077Z,13.60
2018-05-07T03:46:14.909Z,13.60
2018-05-07T03:48:41.989Z,13.70
2018-05-07T03:51:09.837Z,13.70
2018-05-07T03:53:37.689Z,13.70
2018-05-07T03:56:04.765Z,13.60
2018-05-07T03:58:32.616Z,13.70
2018-05-07T04:00:59.688Z,13.70
2018-05-07T04:03:26.769Z,13.80
2018-05-07T04:05:53.845Z,13.80
2018-05-07T04:08:20.925Z,13.90
2018-05-07T04:10:48.765Z,14.00
2018-05-07T04:13:15.866Z,14.00
2018-05-07T04:15:42.938Z,14.00
2018-05-07T04:18:16.881Z,14.10
2018-05-07T04:20:49.837Z,14.10
2018-05-07T04:23:22.847Z,14.20
2018-05-07T04:25:49.885Z,14.20
2018-05-07T04:28:16.965Z,14.30
2018-05-07T04:30:44.801Z,14.40
2018-05-07T04:33:11.890Z,14.40
2018-05-07T04:35:38.971Z,14.50
2018-05-07T04:38:06.046Z,14.50
2018-05-07T04:40:33.125Z,14.50
2018-05-07T04:43:00.964Z,14.60
2018-05-07T04:45:28.044Z,14.60
2018-05-07T04:47:55.893Z,14.60
2018-05-07T04:50:22.965Z,14.60
2018-05-07T04:52:50.045Z,14.70
2018-05-07T04:55:17.129Z,14.70
2018-05-07T04:57:44.197Z,14.70
2018-05-07T05:00:12.042Z,14.80
2018-05-07T05:02:39.152Z,14.80
2018-05-07T05:05:06.338Z,14.90
2018-05-07T05:07:33.421Z,14.90
2018-05-07T05:10:01.262Z,15.00
2018-05-07T05:12:28.337Z,14.90
2018-05-07T05:14:56.618Z,14.90
2018-05-07T05:17:24.457Z,15.00
2018-05-07T05:19:51.545Z,15.00
2018-05-07T05:22:18.623Z,15.10
2018-05-07T05:24:45.700Z,15.10
2018-05-07T05:27:12.788Z,15.20
2018-05-07T05:29:39.865Z,15.20
2018-05-07T05:32:06.954Z,15.20
2018-05-07T05:34:34.792Z,15.30
2018-05-07T05:37:01.870Z,15.20
2018-05-07T05:39:28.941Z,15.30
2018-05-07T05:41:56.008Z,15.40
2018-05-07T05:44:23.080Z,15.40
2018-05-07T05:46:50.141Z,15.50
2018-05-07T05:49:17.219Z,15.60
2018-05-07T05:51:45.057Z,15.70
2018-05-07T05:54:12.156Z,15.70
2018-05-07T05:56:40.159Z,15.70
2018-05-07T05:59:07.928Z,15.60
2018-05-07T06:01:35.449Z,15.70
2018-05-07T06:04:03.033Z,15.80
2018-05-07T06:06:31.265Z,15.90
2018-05-07T06:08:59.558Z,16.00
2018-05-07T06:11:27.078Z,16.00
2018-05-07T06:13:54.577Z,16.10
2018-05-07T06:16:22.110Z,16.00
2018-05-07T06:18:50.396Z,16.10
2018-05-07T06:21:18.752Z,16.20
2018-05-07T06:23:46.199Z,16.20
2018-05-07T06:26:13.730Z,16.30
2018-05-07T06:28:41.237Z,16.30
2018-05-07T06:31:09.516Z,16.50
2018-05-07T06:33:37.803Z,16.50
2018-05-07T06:36:06.082Z,16.60
2018-05-07T06:38:33.609Z,16.60
2018-05-07T06:41:01.130Z,16.70
2018-05-07T06:43:28.645Z,16.80
2018-05-07T06:45:56.245Z,16.80
2018-05-07T06:48:23.710Z,16.90
2018-05-07T06:50:51.225Z,17.00
2018-05-07T06:53:19.509Z,17.00
2018-05-07T06:55:47.798Z,17.00
2018-05-07T06:58:15.317Z,17.00
2018-05-07T07:00:42.833Z,17.00
2018-05-07T07:03:10.353Z,17.10
2018-05-07T07:05:38.629Z,17.20
2018-05-07T07:08:07.046Z,17.30
2018-05-07T07:10:34.442Z,17.20
2018-05-07T07:13:02.881Z,17.30
2018-05-07T07:15:30.486Z,17.30
2018-05-07T07:17:58.010Z,17.40
2018-05-07T07:20:25.525Z,17.50
2018-05-07T07:22:53.805Z,17.60
2018-05-07T07:25:22.094Z,17.60
2018-05-07T07:27:49.610Z,17.60
2018-05-07T07:30:17.130Z,17.60
2018-05-07T07:32:44.650Z,17.70
2018-05-07T07:35:12.943Z,17.70
2018-05-07T07:37:40.498Z,17.70
2018-05-07T07:40:08.782Z,17.80
2018-05-07T07:42:36.297Z,17.70
2018-05-07T07:45:03.806Z,17.80
2018-05-07T07:47:31.330Z,17.70
2018-05-07T07:49:59.613Z,17.90
2018-05-07T07:52:27.953Z,18.00
2018-05-07T07:54:55.430Z,18.00
2018-05-07T07:57:22.938Z,18.10
2018-05-07T07:59:50.474Z,18.10
2018-05-07T08:02:18.754Z,18.20
2018-05-07T08:04:47.050Z,18.30
2018-05-07T08:07:14.574Z,18.30
2018-05-07T08:09:42.849Z,18.50
2018-05-07T08:12:11.197Z,18.60
2018-05-07T08:14:39.464Z,18.70
2018-05-07T08:17:07.024Z,18.70
2018-05-07T08:19:34.569Z,18.70
2018-05-07T08:22:02.103Z,18.80
2018-05-07T08:24:30.394Z,18.90
2018-05-07T08:26:57.925Z,18.80
2018-05-07T08:29:26.271Z,19.00
2018-05-07T08:31:53.804Z,19.00
2018-05-07T08:34:21.332Z,19.10
2018-05-07T08:36:49.717Z,19.20
2018-05-07T08:39:17.256Z,19.10
2018-05-07T08:41:45.567Z,19.30
2018-05-07T08:44:13.155Z,19.30
2018-05-07T08:46:40.703Z,19.40
2018-05-07T08:49:08.234Z,19.40
2018-05-07T08:51:35.794Z,19.50
2018-05-07T08:54:03.337Z,19.50
2018-05-07T08:56:31.651Z,19.70
2018-05-07T08:58:59.202Z,19.60
2018-05-07T09:01:27.710Z,19.70
2018-05-07T09:03:55.304Z,19.70
2018-05-07T09:06:22.890Z,19.90
2018-05-07T09:08:51.208Z,20.00
2018-05-07T09:11:18.776Z,20.00
2018-05-07T09:13:46.332Z,20.10
2018-05-07T09:16:13.883Z,20.10
2018-05-07T09:18:41.414Z,20.20
2018-05-07T09:21:09.058Z,20.30
2018-05-07T09:23:37.390Z,20.30
2018-05-07T09:26:04.945Z,20.30
2018-05-07T09:28:32.532Z,20.40
2018-05-07T09:31:00.881Z,20.50
2018-05-07T09:33:28.516Z,20.50
2018-05-07T09:35:56.183Z,20.60
2018-05-07T09:38:23.714Z,20.60
2018-05-07T09:40:52.038Z,20.70
2018-05-07T09:43:19.602Z,20.70
2018-05-07T09:45:47.162Z,20.90
2018-05-07T09:48:14.784Z,20.90
2018-05-07T09:50:43.111Z,21.00
2018-05-07T09:53:10.684Z,20.90
2018-05-07T09:55:39.777Z,21.00
2018-05-07T09:58:07.514Z,21.00
2018-05-07T10:00:37.889Z,21.10
2018-05-07T10:03:06.252Z,21.30
2018-05-07T10:05:35.312Z,21.40
2018-05-07T10:08:02.887Z,21.30
2018-05-07T10:10:30.421Z,21.50
2018-05-07T10:12:57.994Z,21.60
2018-05-07T10:15:25.559Z,21.60
2018-05-07T10:17:53.079Z,21.60
2018-05-07T10:20:20.643Z,21.70
2018-05-07T10:22:48.336Z,21.80
2018-05-07T10:25:15.894Z,22.00
2018-05-07T10:27:43.494Z,22.10
2018-05-07T10:30:11.073Z,22.30
2018-05-07T10:32:39.408Z,22.50
2018-05-07T10:35:06.969Z,22.40
2018-05-07T10:37:34.582Z,22.50
2018-05-07T10:40:02.152Z,22.60
2018-05-07T10:42:29.697Z,22.70
2018-05-07T10:44:57.296Z,22.80
2018-05-07T10:47:25.048Z,22.90
2018-05-07T10:49:52.583Z,23.10
2018-05-07T10:52:20.157Z,23.20
2018-05-07T10:54:47.689Z,23.30
2018-05-07T10:57:16.073Z,23.50
2018-05-07T10:59:44.425Z,23.60
2018-05-07T11:02:11.943Z,23.60
2018-05-07T11:04:39.479Z,23.70
2018-05-07T11:07:07.043Z,23.90
2018-05-07T11:09:34.608Z,23.90
2018-05-07T11:12:02.189Z,24.10
2018-05-07T11:14:29.717Z,24.20
2018-05-07T11:16:57.272Z,24.30
2018-05-07T11:19:25.570Z,24.60
2018-05-07T11:21:53.123Z,24.60
2018-05-07T11:24:20.630Z,24.70
2018-05-07T11:26:48.153Z,24.70
2018-05-07T11:29:15.661Z,24.80
2018-05-07T11:31:43.165Z,25.00
2018-05-07T11:34:10.682Z,25.20
2018-05-07T11:36:38.973Z,25.60
2018-05-07T11:39:07.264Z,25.70
2018-05-07T11:41:34.783Z,25.70
2018-05-07T11:44:02.302Z,25.80
2018-05-07T11:46:29.810Z,26.00
2018-05-07T11:48:58.093Z,26.20
2018-05-07T11:51:26.368Z,26.40
2018-05-07T11:53:54.646Z,26.50
2018-05-07T11:56:22.917Z,26.50
2018-05-07T11:58:51.194Z,26.50
2018-05-07T12:01:19.482Z,26.60
2018-05-07T12:03:47.785Z,26.60
2018-05-07T12:06:15.294Z,26.50
2018-05-07T12:08:42.809Z,26.50
2018-05-07T12:11:10.322Z,26.50
2018-05-07T12:13:38.601Z,26.90
2018-05-07T12:16:06.968Z,27.10
2018-05-07T12:18:34.418Z,27.10
2018-05-07T12:21:01.938Z,27.30
2018-05-07T12:23:29.443Z,27.40
2018-05-07T12:25:56.948Z,27.40
2018-05-07T12:28:24.461Z,27.50
2018-05-07T12:30:51.978Z,27.50
2018-05-07T12:33:19.488Z,27.60
2018-05-07T12:35:47.765Z,27.70
2018-05-07T12:38:16.049Z,27.80
2018-05-07T12:40:44.320Z,27.80
2018-05-07T12:43:12.601Z,27.80
2018-05-07T12:45:40.885Z,28.00
2018-05-07T12:48:08.397Z,28.00
2018-05-07T12:50:35.919Z,28.10
2018-05-07T12:53:03.434Z,28.10
2018-05-07T12:55:30.936Z,28.20
2018-05-07T12:57:58.450Z,28.40
2018-05-07T13:00:25.969Z,28.40
2018-05-07T13:02:53.478Z,28.50
2018-05-07T13:05:21.758Z,28.80
2018-05-07T13:07:50.038Z,29.10
2018-05-07T13:10:18.318Z,29.30
2018-05-07T13:12:46.606Z,29.40
2018-05-07T13:15:14.130Z,29.40
2018-05-07T13:17:41.644Z,29.50
2018-05-07T13:20:09.157Z,29.50
2018-05-07T13:22:37.428Z,29.80
2018-05-07T13:25:04.945Z,29.70
2018-05-07T13:27:32.459Z,29.90
2018-05-07T13:30:00.741Z,29.90
2018-05-07T13:32:29.030Z,30.10
2018-05-07T13:34:56.541Z,30.10
2018-05-07T13:37:24.046Z,30.40
2018-05-07T13:39:51.598Z,30.50
2018-05-07T13:42:19.881Z,30.90
2018-05-07T13:44:47.394Z,30.90
2018-05-07T13:47:14.914Z,31.00
2018-05-07T13:49:42.458Z,31.10
2018-05-07T14:11:21.489Z,30.80
2018-05-07T14:13:49.000Z,30.60
2018-05-07T14:16:16.501Z,30.50
2018-05-07T14:18:44.026Z,30.60
2018-05-07T14:21:11.532Z,30.80
2018-05-07T14:23:39.814Z,31.20
2018-05-07T14:26:08.097Z,31.30
2018-05-07T14:28:36.370Z,31.40
2018-05-07T14:31:04.645Z,31.50
2018-05-07T14:33:33.028Z,31.50
2018-05-07T14:36:00.546Z,31.50
2018-05-07T14:38:28.050Z,31.60
2018-05-07T14:40:55.565Z,31.70
2018-05-07T14:43:23.081Z,31.90
2018-05-07T14:45:50.598Z,32.00
2018-05-07T14:48:18.102Z,32.00
2018-05-07T14:50:45.621Z,32.00
2018-05-07T14:53:13.911Z,31.80
2018-05-07T14:55:42.238Z,31.70
2018-05-07T14:58:09.721Z,31.70
2018-05-07T15:00:37.994Z,31.70
2018-05-07T15:03:05.514Z,31.70
2018-05-07T15:05:33.073Z,31.70
2018-05-07T15:08:01.326Z,31.90
2018-05-07T15:10:28.826Z,31.80
2018-05-07T15:12:56.530Z,32.00
2018-05-07T15:15:24.804Z,32.00
2018-05-07T15:17:53.073Z,32.10
2018-05-07T15:20:21.370Z,32.40
2018-05-07T15:22:49.709Z,32.50
2018-05-07T15:25:17.229Z,32.50
2018-05-07T15:27:44.750Z,32.60
2018-05-07T15:30:13.033Z,32.80
2018-05-07T15:32:41.310Z,32.80
2018-05-07T15:35:09.599Z,32.80
2018-05-07T15:37:37.109Z,32.80
2018-05-07T15:40:05.190Z,32.90
2018-05-07T15:42:33.490Z,33.00
2018-05-07T15:45:01.762Z,33.00
2018-05-07T15:47:30.050Z,33.00
2018-05-07T15:49:58.331Z,33.00
2018-05-07T15:52:26.631Z,33.00
2018-05-07T15:54:54.150Z,32.90
2018-05-07T15:57:22.425Z,32.90
2018-05-07T15:59:49.946Z,32.90
2018-05-07T16:02:17.457Z,32.80
2018-05-07T16:04:45.736Z,32.40
2018-05-07T16:07:14.059Z,32.20
2018-05-07T16:09:41.537Z,32.20
2018-05-07T16:12:09.059Z,32.10
2018-05-07T16:14:36.565Z,31.90
2018-05-07T16:17:05.318Z,31.50
2018-05-07T16:19:32.833Z,31.50
2018-05-07T16:22:01.163Z,30.70
2018-05-07T16:24:28.650Z,30.70
2018-05-07T16:26:56.162Z,30.10
2018-05-07T16:29:23.677Z,29.60
2018-05-07T16:31:51.963Z,28.70
2018-05-07T16:34:20.234Z,28.40
2018-05-07T16:36:48.523Z,28.00
2018-05-07T16:39:16.042Z,28.00
2018-05-07T16:41:43.550Z,27.80
2018-05-07T16:44:11.065Z,27.50
2018-05-07T16:46:38.633Z,27.30
2018-05-07T16:49:06.156Z,27.00
2018-05-07T16:51:33.639Z,26.70
2018-05-07T16:54:01.153Z,26.40
2018-05-07T16:56:28.670Z,26.10
2018-05-07T16:58:56.946Z,25.60
2018-05-07T17:01:25.294Z,25.40
2018-05-07T17:03:52.758Z,25.40
2018-05-07T17:06:20.275Z,25.20
2018-05-07T17:08:48.044Z,25.00
2018-05-07T17:11:15.586Z,24.80
2018-05-07T17:13:43.107Z,24.70
2018-05-07T17:16:10.630Z,24.50
2018-05-07T17:18:38.150Z,24.40
2018-05-07T17:21:07.115Z,24.20
2018-05-07T17:23:34.731Z,24.20
2018-05-07T17:26:02.245Z,24.10
2018-05-07T17:28:29.758Z,23.90
2018-05-07T17:30:57.273Z,23.90
2018-05-07T17:33:25.628Z,23.70
2018-05-07T17:35:53.839Z,23.70
2018-05-07T17:38:22.114Z,23.60
2018-05-07T17:40:50.394Z,23.60
2018-05-07T17:43:18.677Z,23.50
2018-05-07T17:45:59.697Z,23.50
2018-05-07T17:48:39.028Z,23.40
2018-05-07T17:51:06.549Z,23.30
2018-05-07T17:53:34.058Z,23.20
2018-05-07T17:56:01.619Z,23.20
2018-05-07T17:58:29.132Z,23.10
2018-05-07T18:00:56.645Z,23.00
2018-05-07T18:03:24.169Z,23.00
2018-05-07T18:05:51.674Z,22.90
2018-05-07T18:08:19.186Z,22.80
2018-05-07T18:10:46.715Z,22.70
2018-05-07T18:13:14.230Z,22.60
2018-05-07T18:15:41.738Z,22.50
2018-05-07T18:18:09.258Z,22.40
2018-05-07T18:20:36.772Z,22.40
2018-05-07T18:23:04.301Z,22.30
2018-05-07T18:25:32.577Z,22.30
2018-05-07T18:28:00.967Z,22.20
2018-05-07T18:30:28.398Z,22.20
2018-05-07T18:32:56.685Z,22.00
2018-05-07T18:35:24.975Z,21.90
2018-05-07T18:37:52.491Z,21.90
2018-05-07T18:40:20.018Z,21.80
2018-05-07T18:42:47.529Z,21.80
2018-05-07T18:45:15.817Z,21.70
2018-05-07T18:47:44.136Z,21.60
2018-05-07T18:50:11.654Z,21.60
2018-05-07T18:52:39.938Z,21.50
2018-05-07T18:55:07.468Z,21.60
2018-05-07T18:57:34.998Z,21.50
2018-05-07T19:00:02.510Z,21.50
2018-05-07T19:02:30.786Z,21.40
2018-05-07T19:04:59.057Z,21.40
2018-05-07T19:07:27.337Z,21.30
2018-05-07T19:09:55.613Z,21.30
2018-05-07T19:12:23.901Z,21.30
2018-05-07T19:14:51.431Z,21.30
2018-05-07T19:17:19.713Z,21.20
2018-05-07T19:19:48.064Z,21.10
2018-05-07T19:22:16.286Z,21.10
2018-05-07T19:24:44.571Z,21.10
2018-05-07T19:27:12.109Z,21.10
2018-05-07T19:29:40.387Z,21.00
2018-05-07T19:32:08.680Z,20.90
2018-05-07T19:34:36.190Z,20.90
2018-05-07T19:37:03.704Z,20.90
2018-05-07T19:39:31.225Z,20.80
2018-05-07T19:41:58.730Z,20.80
2018-05-07T19:44:26.233Z,20.70
2018-05-07T19:46:54.518Z,20.60
2018-05-07T19:49:22.026Z,20.60
2018-05-07T19:51:49.542Z,20.60
2018-05-07T19:54:17.813Z,20.50
2018-05-07T19:56:45.342Z,20.50
2018-05-07T19:59:12.861Z,20.40
2018-05-07T20:01:40.382Z,20.30
2018-05-07T20:04:07.890Z,20.20
2018-05-07T20:06:35.393Z,20.10
2018-05-07T20:09:02.920Z,20.10
2018-05-07T20:11:30.426Z,20.00
2018-05-07T20:13:58.721Z,19.80
2018-05-07T20:16:27.001Z,19.70
2018-05-07T20:18:54.509Z,19.60
2018-05-07T20:21:22.014Z,19.60
2018-05-07T20:23:50.286Z,19.40
2018-05-07T20:26:18.562Z,19.30
2018-05-07T20:28:46.838Z,19.20
2018-05-07T20:31:15.112Z,19.10
2018-05-07T20:33:43.389Z,19.10
2018-05-07T20:36:11.670Z,19.00
2018-05-07T20:38:39.948Z,18.90
2018-05-07T20:41:07.457Z,18.90
2018-05-07T20:43:34.986Z,18.90
2018-05-07T20:46:02.507Z,18.80
2018-05-07T20:48:30.009Z,18.70
2018-05-07T20:50:57.514Z,18.70
2018-05-07T20:53:25.790Z,18.70
2018-05-07T20:55:54.061Z,18.60
2018-05-07T20:58:23.086Z,18.60
2018-05-07T21:00:51.363Z,18.50
2018-05-07T21:03:18.901Z,18.50
2018-05-07T21:05:46.411Z,18.50
2018-05-07T21:08:13.919Z,18.40
2018-05-07T21:10:41.434Z,18.30
2018-05-07T21:13:08.954Z,18.30
2018-05-07T21:15:37.242Z,18.20
2018-05-07T21:18:04.753Z,18.10
2018-05-07T21:20:32.278Z,18.00
2018-05-07T21:22:59.789Z,18.00
2018-05-07T21:25:27.299Z,18.00
2018-05-07T21:27:54.818Z,17.90
2018-05-07T21:30:23.094Z,17.90
2018-05-07T21:32:51.373Z,17.90
2018-05-07T21:35:19.654Z,17.80
2018-05-07T21:37:47.939Z,17.80
2018-05-07T21:40:15.446Z,17.80
2018-05-07T21:42:42.969Z,17.80
2018-05-07T21:45:10.474Z,17.80
2018-05-07T21:47:37.987Z,17.80
2018-05-07T21:50:05.498Z,17.70
2018-05-07T21:52:33.018Z,17.70
2018-05-07T21:55:00.529Z,17.60
2018-05-07T21:57:28.817Z,17.50
2018-05-07T21:59:57.090Z,17.40
2018-05-07T22:02:25.373Z,17.40
2018-05-07T22:04:52.890Z,17.30
2018-05-07T22:07:20.408Z,17.30
2018-05-07T22:09:47.933Z,17.20
2018-05-07T22:12:16.280Z,17.20
2018-05-07T22:14:43.744Z,17.20
2018-05-07T22:17:11.262Z,17.20
2018-05-07T22:19:38.788Z,17.20
2018-05-07T22:22:07.074Z,17.00
2018-05-07T22:24:35.354Z,16.90
2018-05-07T22:27:02.861Z,16.80
2018-05-07T22:29:30.377Z,16.80
2018-05-07T22:31:57.890Z,16.70
2018-05-07T22:34:25.408Z,16.70
2018-05-07T22:36:52.918Z,16.70
2018-05-07T22:39:21.278Z,16.60
2018-05-07T22:41:48.753Z,16.60
2018-05-07T22:44:16.265Z,16.50
2018-05-07T22:46:43.786Z,16.50
2018-05-07T22:49:12.075Z,16.50
2018-05-07T22:51:39.593Z,16.40
2018-05-07T22:54:07.123Z,16.40
2018-05-07T22:56:34.629Z,16.40
2018-05-07T22:59:02.925Z,16.30
2018-05-07T23:01:31.217Z,16.30
2018-05-07T23:03:58.757Z,16.20
2018-05-07T23:06:27.099Z,16.20
2018-05-07T23:08:54.561Z,16.10
2018-05-07T23:11:22.070Z,16.10
2018-05-07T23:13:49.587Z,16.10
2018-05-07T23:16:17.110Z,16.00
2018-05-07T23:18:44.626Z,16.00
2018-05-07T23:21:12.905Z,15.90
2018-05-07T23:23:41.192Z,15.90
2018-05-07T23:26:08.710Z,15.90
2018-05-07T23:28:36.223Z,15.80
2018-05-07T23:31:03.733Z,15.80
2018-05-07T23:33:31.266Z,15.80
2018-05-07T23:35:58.774Z,15.70
2018-05-07T23:38:27.050Z,15.70
2018-05-07T23:40:55.334Z,15.70
2018-05-07T23:43:22.842Z,15.60
2018-05-07T23:45:50.357Z,15.70
2018-05-07T23:48:17.865Z,15.70
2018-05-07T23:50:45.387Z,15.60
2018-05-07T23:53:12.905Z,15.50
2018-05-07T23:55:41.197Z,15.50
2018-05-07T23:58:09.478Z,15.40
